Time;durP1;ratioP1;P1;durP2;ratioP2;P2;SDS_P1;SDS_P2;PMS_P1;PMS_P2;Temp;Humidity;BMP_temperature;BMP_pressure;BME280_temperature;BME280_humidity;BME280_pressure;Samples;Min_cycle;Max_cycle;Signal;HPM_P1;HPM_P2
2022/06/21 00:01:45;;;;;;;699.93;663.73;;;9.80;99.90;;;;;;4980121;28;20458;-82
2022/06/21 00:04:11;;;;;;;718.10;680.70;;;9.70;99.90;;;;;;4979154;28;20462;-83
2022/06/21 00:06:38;;;;;;;729.43;690.27;;;9.60;99.90;;;;;;4978975;28;20466;-83
2022/06/21 00:09:05;;;;;;;754.60;713.07;;;9.60;99.90;;;;;;4979181;28;20558;-81
2022/06/21 00:11:35;;;;;;;768.87;724.87;;;9.60;99.90;;;;;;4978522;28;20482;-84
2022/06/21 00:14:03;;;;;;;784.63;738.57;;;9.60;99.90;;;;;;4980182;28;20459;-82
2022/06/21 00:16:32;;;;;;;784.47;740.37;;;9.60;99.90;;;;;;4978758;28;20975;-84
2022/06/21 00:18:59;;;;;;;790.97;744.67;;;9.60;99.90;;;;;;4978820;28;20483;-82
2022/06/21 00:21:29;;;;;;;757.30;713.93;;;9.60;99.90;;;;;;4978418;28;20967;-82
2022/06/21 00:23:57;;;;;;;752.87;710.87;;;9.70;99.90;;;;;;4978581;28;20466;-82
2022/06/21 00:26:25;;;;;;;769.83;728.50;;;9.60;99.90;;;;;;4978335;28;20455;-82
2022/06/21 00:28:52;;;;;;;788.17;742.97;;;9.50;99.90;;;;;;4977763;28;20474;-82
2022/06/21 00:31:23;;;;;;;777.37;733.57;;;9.40;99.90;;;;;;4978325;28;20466;-82
2022/06/21 00:33:50;;;;;;;760.03;719.73;;;9.40;99.90;;;;;;4978432;28;20462;-81
2022/06/21 00:36:23;;;;;;;719.93;684.87;;;9.50;99.90;;;;;;4978883;28;20459;-81
2022/06/21 00:38:50;;;;;;;639.60;611.67;;;9.60;99.90;;;;;;4977676;28;20519;-81
2022/06/21 00:41:20;;;;;;;554.67;532.53;;;9.90;99.90;;;;;;4977808;28;20462;-81
2022/06/21 00:43:51;;;;;;;496.57;477.87;;;10.10;99.90;;;;;;4977606;28;20455;-81
2022/06/21 00:46:31;;;;;;;449.60;433.77;;;10.20;99.90;;;;;;4977739;28;20450;-81
2022/06/21 00:49:02;;;;;;;359.10;347.17;;;10.40;99.90;;;;;;4977941;28;20475;-80
2022/06/21 00:51:34;;;;;;;353.80;342.13;;;10.50;99.90;;;;;;4976667;28;20459;-81
2022/06/21 00:54:06;;;;;;;417.30;402.80;;;10.60;99.90;;;;;;4978878;28;20462;-80
2022/06/21 00:56:37;;;;;;;443.67;427.73;;;10.40;99.90;;;;;;4981033;28;20467;-80
2022/06/21 00:59:17;;;;;;;489.97;472.10;;;10.30;99.90;;;;;;4983384;28;20533;-80
2022/06/21 01:01:46;;;;;;;545.47;524.37;;;10.10;99.90;;;;;;4980488;28;20459;-79
2022/06/21 01:04:17;;;;;;;590.13;566.60;;;9.90;99.90;;;;;;4987865;28;20458;-80
2022/06/21 01:06:47;;;;;;;637.30;610.20;;;9.80;99.90;;;;;;4988168;28;20462;-79
2022/06/21 01:09:17;;;;;;;710.83;678.43;;;9.60;99.90;;;;;;4987023;28;20901;-79
2022/06/21 01:11:47;;;;;;;759.43;721.67;;;9.40;99.90;;;;;;4987652;28;20451;-79
2022/06/21 01:14:18;;;;;;;779.07;738.80;;;9.40;99.90;;;;;;4980512;28;20952;-81
2022/06/21 01:16:47;;;;;;;783.77;742.87;;;9.30;99.90;;;;;;4978096;28;20455;-81
2022/06/21 01:19:19;;;;;;;800.33;757.87;;;9.00;99.90;;;;;;4977112;28;20857;-81
2022/06/21 01:21:52;;;;;;;847.63;799.63;;;8.90;99.90;;;;;;4977721;28;20455;-81
2022/06/21 01:24:29;;;;;;;856.37;806.73;;;8.80;99.90;;;;;;4977344;28;20982;-81
2022/06/21 01:27:00;;;;;;;929.47;870.50;;;8.70;99.90;;;;;;4977847;28;20833;-81
2022/06/21 01:29:30;;;;;;;922.50;858.53;;;8.80;99.90;;;;;;4976420;28;21033;-80
2022/06/21 01:32:00;;;;;;;893.00;834.60;;;8.80;99.90;;;;;;4977150;28;20509;-81
2022/06/21 01:34:28;;;;;;;944.83;882.60;;;8.80;99.90;;;;;;4976963;28;20469;-81
2022/06/21 01:37:00;;;;;;;952.77;888.30;;;8.60;99.90;;;;;;4977431;28;20470;-81
2022/06/21 01:39:33;;;;;;;956.77;890.20;;;8.60;99.90;;;;;;4976142;28;20889;-80
2022/06/21 01:42:05;;;;;;;927.13;859.60;;;8.60;99.90;;;;;;4977349;28;20886;-80
2022/06/21 01:44:36;;;;;;;929.70;864.00;;;8.60;99.90;;;;;;4977138;28;20962;-81
2022/06/21 01:47:09;;;;;;;934.77;870.70;;;8.50;99.90;;;;;;4976913;28;20462;-81
2022/06/21 01:49:37;;;;;;;938.10;875.07;;;8.50;99.90;;;;;;4976442;28;20451;-81
2022/06/21 01:52:11;;;;;;;926.33;862.53;;;8.40;99.90;;;;;;4976029;28;20539;-80
2022/06/21 01:54:40;;;;;;;938.67;875.77;;;8.30;99.90;;;;;;4977021;28;20459;-81
2022/06/21 01:57:10;;;;;;;959.07;895.27;;;8.20;99.90;;;;;;4976369;28;20482;-81
2022/06/21 01:59:41;;;;;;;945.90;882.73;;;8.20;99.90;;;;;;4976367;28;20486;-81
2022/06/21 02:02:11;;;;;;;953.40;890.30;;;8.10;99.90;;;;;;4977099;28;20459;-80
2022/06/21 02:04:42;;;;;;;961.03;897.67;;;8.00;99.90;;;;;;4977303;28;20463;-81
2022/06/21 02:07:11;;;;;;;941.10;878.10;;;8.00;99.90;;;;;;4977295;28;20479;-81
2022/06/21 02:09:43;;;;;;;951.20;884.60;;;8.00;99.90;;;;;;4976540;28;20455;-80
2022/06/21 02:12:14;;;;;;;954.70;884.40;;;8.10;99.90;;;;;;4976917;28;20465;-81
2022/06/21 02:14:43;;;;;;;955.20;884.67;;;8.20;99.90;;;;;;4976540;28;20462;-81
2022/06/21 02:17:18;;;;;;;976.40;907.20;;;8.20;99.90;;;;;;4976695;28;20483;-81
2022/06/21 02:19:48;;;;;;;958.97;887.00;;;8.20;99.90;;;;;;4976205;28;20827;-81
2022/06/21 02:22:18;;;;;;;951.50;883.57;;;8.30;99.90;;;;;;4977081;28;20470;-81
2022/06/21 02:24:45;;;;;;;933.23;868.40;;;8.10;99.90;;;;;;4976350;28;20451;-81
2022/06/21 02:27:18;;;;;;;954.20;889.77;;;8.10;99.90;;;;;;4976650;28;20543;-81
2022/06/21 02:29:48;;;;;;;926.30;855.80;;;8.00;99.90;;;;;;4976103;28;20457;-81
2022/06/21 02:32:19;;;;;;;921.03;850.67;;;8.20;99.90;;;;;;4976798;28;20455;-81
2022/06/21 02:34:49;;;;;;;909.60;841.10;;;8.10;99.90;;;;;;4976498;28;20447;-80
2022/06/21 02:37:16;;;;;;;894.13;827.60;;;8.00;99.90;;;;;;4976857;28;20479;-81
2022/06/21 02:39:44;;;;;;;917.13;848.53;;;8.00;99.90;;;;;;4976017;28;20686;-82
2022/06/21 02:42:18;;;;;;;927.53;859.80;;;7.90;99.90;;;;;;4976360;28;20454;-80
2022/06/21 02:44:49;;;;;;;932.03;860.43;;;7.80;99.90;;;;;;4976694;28;20469;-81
2022/06/21 02:47:20;;;;;;;924.57;850.33;;;7.80;99.90;;;;;;4977112;28;20474;-81
2022/06/21 02:49:51;;;;;;;925.67;850.40;;;7.80;99.90;;;;;;4975875;28;20485;-80
2022/06/21 02:52:22;;;;;;;904.77;832.87;;;7.70;99.90;;;;;;4975016;28;20462;-81
2022/06/21 02:54:54;;;;;;;903.03;833.40;;;7.80;99.90;;;;;;4976214;28;20482;-81
2022/06/21 02:57:27;;;;;;;918.17;848.13;;;7.80;99.90;;;;;;4975650;28;20493;-81
2022/06/21 02:59:56;;;;;;;917.50;847.13;;;7.70;99.90;;;;;;4975377;28;20586;-81
2022/06/21 03:02:25;;;;;;;909.83;840.23;;;7.80;99.90;;;;;;4976163;28;20960;-81
2022/06/21 03:04:54;;;;;;;904.00;836.40;;;7.70;99.90;;;;;;4976714;28;20477;-83
2022/06/21 03:07:24;;;;;;;916.40;849.20;;;7.60;99.90;;;;;;4976911;28;20996;-83
2022/06/21 03:09:51;;;;;;;903.83;836.83;;;7.60;99.90;;;;;;4978518;28;20454;-82
2022/06/21 03:12:22;;;;;;;903.77;837.43;;;7.50;99.90;;;;;;4979674;28;20459;-82
2022/06/21 03:14:55;;;;;;;922.33;855.27;;;7.40;99.90;;;;;;4980223;28;20819;-83
2022/06/21 03:17:28;;;;;;;926.07;858.60;;;7.50;99.90;;;;;;4979896;28;20475;-82
2022/06/21 03:19:55;;;;;;;904.73;834.73;;;7.40;99.90;;;;;;4979367;28;20867;-82
2022/06/21 03:22:31;;;;;;;892.70;821.87;;;7.50;99.90;;;;;;4979857;28;20466;-83
2022/06/21 03:25:05;;;;;;;904.83;832.20;;;7.50;99.90;;;;;;4979693;28;20481;-82
2022/06/21 03:27:48;;;;;;;907.57;834.80;;;7.60;99.90;;;;;;4979684;28;20914;-83
2022/06/21 03:30:19;;;;;;;890.37;818.97;;;7.50;99.90;;;;;;4977448;28;20486;-82
2022/06/21 03:32:48;;;;;;;887.40;816.53;;;7.60;99.90;;;;;;4979905;28;20461;-82
2022/06/21 03:35:20;;;;;;;883.47;810.90;;;7.70;99.90;;;;;;4979410;28;20473;-82
2022/06/21 03:37:48;;;;;;;885.10;812.47;;;7.80;99.90;;;;;;4979397;28;20565;-83
2022/06/21 03:43:14;;;;;;;891.13;818.13;;;7.80;99.90;;;;;;4979264;28;20493;-82
2022/06/21 03:45:44;;;;;;;892.00;818.03;;;7.80;99.90;;;;;;4979688;28;20458;-83
2022/06/21 03:48:20;;;;;;;894.13;821.47;;;7.70;99.90;;;;;;4978840;28;20489;-82
2022/06/21 03:50:53;;;;;;;888.00;814.20;;;7.70;99.90;;;;;;4978949;28;20462;-82
2022/06/21 03:53:23;;;;;;;878.60;804.80;;;7.60;99.90;;;;;;4979303;28;20522;-82
2022/06/21 03:55:56;;;;;;;859.00;789.53;;;7.70;99.90;;;;;;4979227;28;20463;-82
2022/06/21 03:58:35;;;;;;;875.57;804.83;;;7.60;99.90;;;;;;4978058;28;20482;-82
2022/06/21 04:01:07;;;;;;;874.93;803.10;;;7.60;99.90;;;;;;4979762;28;20510;-82
2022/06/21 04:03:38;;;;;;;866.37;793.33;;;7.70;99.90;;;;;;4979683;28;20837;-82
2022/06/21 04:06:15;;;;;;;866.93;792.83;;;7.80;99.90;;;;;;4978967;28;20836;-83
2022/06/21 04:08:48;;;;;;;859.20;785.50;;;7.80;99.90;;;;;;4978786;28;20475;-82
2022/06/21 04:11:20;;;;;;;858.93;784.87;;;7.80;99.90;;;;;;4979465;28;20455;-82
2022/06/21 04:13:55;;;;;;;862.00;787.40;;;7.80;99.90;;;;;;4979255;28;20804;-82
2022/06/21 04:16:31;;;;;;;879.17;805.23;;;7.90;99.90;;;;;;4979338;28;20458;-82
2022/06/21 04:25:57;;;;;;;872.93;798.07;;;8.10;99.90;;;;;;4915588;29;20485;-82
2022/06/21 04:39:38;;;;;;;864.87;790.60;;;8.40;99.90;;;;;;5001980;23;20863;-82
2022/06/21 04:42:14;;;;;;;866.33;791.57;;;8.60;99.90;;;;;;4979390;28;20447;-82
2022/06/21 04:48:58;;;;;;;;;;;;;;;;;;;;;
2022/06/21 04:51:54;;;;;;;880.10;802.17;;;8.80;99.90;;;;;;4977215;28;20450;-82
2022/06/21 04:57:35;;;;;;;859.83;783.70;;;9.20;99.90;;;;;;4977928;28;20502;-82
2022/06/21 05:00:25;;;;;;;872.03;793.00;;;9.50;99.90;;;;;;4978130;28;20570;-82
2022/06/21 05:02:55;;;;;;;858.50;782.60;;;9.80;99.90;;;;;;4978687;28;20482;-82
2022/06/21 05:05:26;;;;;;;868.37;791.03;;;9.90;99.90;;;;;;4977849;28;20458;-82
2022/06/21 05:08:01;;;;;;;865.97;790.13;;;9.90;99.90;;;;;;4978320;28;20482;-83
2022/06/21 05:10:29;;;;;;;865.70;791.30;;;10.20;99.90;;;;;;4977809;28;20461;-82
2022/06/21 05:13:00;;;;;;;850.93;779.13;;;10.40;99.90;;;;;;4977522;28;20956;-82
2022/06/21 05:15:29;;;;;;;844.57;773.10;;;10.60;99.90;;;;;;4977433;28;21134;-83
2022/06/21 05:17:59;;;;;;;819.87;748.00;;;10.90;99.90;;;;;;4977770;28;20852;-83
2022/06/21 05:20:30;;;;;;;785.10;731.27;;;11.30;99.90;;;;;;4977735;28;20582;-83
2022/06/21 05:23:01;;;;;;;478.90;454.53;;;12.00;99.90;;;;;;4978226;28;20465;-81
2022/06/21 05:25:31;;;;;;;108.17;102.20;;;12.70;99.90;;;;;;4977741;28;20462;-81
2022/06/21 05:28:02;;;;;;;22.63;20.83;;;13.40;99.90;;;;;;4979583;28;20486;-81
2022/06/21 05:30:39;;;;;;;10.93;6.70;;;14.20;99.90;;;;;;4978074;28;20455;-81
2022/06/21 05:33:11;;;;;;;7.63;5.93;;;14.70;99.90;;;;;;4977066;28;20448;-81
2022/06/21 05:35:39;;;;;;;8.67;5.57;;;15.10;99.90;;;;;;4978414;28;20457;-81
2022/06/21 05:38:10;;;;;;;7.17;4.60;;;15.70;96.80;;;;;;4977311;28;21294;-80
2022/06/21 05:40:44;;;;;;;8.97;4.30;;;16.00;92.20;;;;;;4976575;28;20486;-81
2022/06/21 05:43:14;;;;;;;8.73;3.60;;;16.50;86.20;;;;;;4978835;28;20460;-82
2022/06/21 05:45:44;;;;;;;7.50;4.70;;;17.20;85.70;;;;;;4978485;28;20462;-80
2022/06/21 05:48:18;;;;;;;9.33;4.80;;;17.30;77.20;;;;;;4977008;28;21006;-82
2022/06/21 05:50:45;;;;;;;8.80;4.70;;;17.30;70.00;;;;;;4981207;28;20451;-82
2022/06/21 05:53:16;;;;;;;8.37;4.43;;;17.50;67.80;;;;;;4979258;28;20458;-81
2022/06/21 05:55:45;;;;;;;9.00;5.50;;;17.90;61.50;;;;;;4977524;28;20474;-83
2022/06/21 05:58:21;;;;;;;8.03;4.10;;;18.00;62.70;;;;;;4980515;28;20899;-82
2022/06/21 06:00:52;;;;;;;7.60;4.63;;;18.60;60.60;;;;;;4980318;28;20484;-82
2022/06/21 06:03:24;;;;;;;8.93;4.10;;;18.90;55.20;;;;;;4974193;28;20471;-82
2022/06/21 06:05:53;;;;;;;8.13;4.30;;;19.20;52.50;;;;;;4977271;28;20451;-81
2022/06/21 06:08:24;;;;;;;6.70;4.10;;;19.60;45.90;;;;;;4978511;28;20482;-81
2022/06/21 06:10:52;;;;;;;6.77;3.33;;;19.70;43.40;;;;;;4979125;28;20874;-83
2022/06/21 06:13:27;;;;;;;8.30;3.47;;;19.60;40.90;;;;;;4985531;28;20455;-82
2022/06/21 06:15:57;;;;;;;5.60;3.23;;;19.90;38.10;;;;;;4976919;28;20462;-80
2022/06/21 06:18:29;;;;;;;7.17;3.83;;;20.10;36.90;;;;;;4975114;28;20828;-81
2022/06/21 06:21:02;;;;;;;6.90;4.10;;;20.70;35.90;;;;;;4983437;28;20484;-81
2022/06/21 06:23:38;;;;;;;7.27;3.63;;;21.10;35.30;;;;;;4986776;28;20488;-81
2022/06/21 06:26:08;;;;;;;11.93;3.63;;;21.20;33.20;;;;;;4983095;28;20460;-82
2022/06/21 06:28:41;;;;;;;6.90;3.70;;;21.10;34.10;;;;;;4977275;28;20488;-82
2022/06/21 06:31:16;;;;;;;7.03;3.17;;;20.80;29.40;;;;;;4977687;28;20458;-82
2022/06/21 06:33:46;;;;;;;6.90;3.30;;;20.80;30.00;;;;;;4975489;28;20453;-80
2022/06/21 06:36:16;;;;;;;8.03;3.90;;;20.70;28.60;;;;;;4977517;28;20451;-82
2022/06/21 06:38:44;;;;;;;7.83;4.00;;;20.70;31.00;;;;;;4976037;28;20477;-82
2022/06/21 06:41:17;;;;;;;10.00;4.23;;;20.40;27.30;;;;;;4976920;28;20485;-82
2022/06/21 06:43:49;;;;;;;7.00;3.57;;;20.50;30.80;;;;;;4978659;28;20456;-80
2022/06/21 06:46:23;;;;;;;11.10;4.10;;;20.40;30.30;;;;;;4980962;28;20487;-82
2022/06/21 06:48:50;;;;;;;6.43;3.87;;;20.30;30.90;;;;;;4980110;28;20495;-82
2022/06/21 06:51:46;;;;;;;8.17;3.80;;;20.20;30.20;;;;;;4968990;28;20464;-81
2022/06/21 06:54:28;;;;;;;8.67;4.63;;;20.00;29.30;;;;;;4947378;28;20454;-81
2022/06/21 06:57:03;;;;;;;7.30;3.37;;;20.50;29.80;;;;;;4960258;28;20459;-82
2022/06/21 06:59:29;;;;;;;7.33;3.60;;;20.50;28.60;;;;;;4959986;28;20522;-81
2022/06/21 07:02:01;;;;;;;9.23;3.60;;;20.80;28.80;;;;;;4960018;28;20485;-82
2022/06/21 07:04:35;;;;;;;11.23;4.80;;;21.10;27.80;;;;;;4960484;28;20456;-82
2022/06/21 07:07:06;;;;;;;7.07;4.23;;;21.20;26.00;;;;;;4960088;28;20462;-81
2022/06/21 07:09:41;;;;;;;7.97;3.93;;;21.10;23.70;;;;;;4959931;28;20470;-82
2022/06/21 07:12:19;;;;;;;9.80;3.47;;;21.70;27.50;;;;;;4961777;28;20458;-81
2022/06/21 07:14:49;;;;;;;6.13;3.37;;;22.20;23.60;;;;;;4960036;28;20459;-81
2022/06/21 07:17:23;;;;;;;10.50;4.77;;;22.50;24.60;;;;;;4961901;28;20707;-82
2022/06/21 07:19:51;;;;;;;9.83;4.90;;;22.60;25.00;;;;;;4962374;28;20804;-82
2022/06/21 07:22:21;;;;;;;7.90;3.70;;;22.60;20.80;;;;;;4961825;28;20496;-81
2022/06/21 07:25:13;;;;;;;8.57;3.13;;;22.80;22.40;;;;;;4965005;28;20458;-82
2022/06/21 07:27:44;;;;;;;6.87;3.30;;;22.80;19.60;;;;;;4963990;28;20481;-82
2022/06/21 07:30:14;;;;;;;6.68;3.70;;;23.10;20.60;;;;;;4960867;28;20484;-84
2022/06/21 07:32:46;;;;;;;7.83;3.63;;;23.50;18.30;;;;;;4961807;28;20433;-84
2022/06/21 07:35:18;;;;;;;12.13;3.03;;;23.60;16.70;;;;;;4961572;28;20460;-84
2022/06/21 07:37:50;;;;;;;6.87;2.77;;;23.20;16.20;;;;;;4961607;28;20487;-84
2022/06/21 07:40:23;;;;;;;6.77;3.20;;;23.20;16.80;;;;;;4960493;28;20502;-84
2022/06/21 07:42:57;;;;;;;5.87;2.70;;;23.10;16.00;;;;;;4962091;28;20489;-84
2022/06/21 07:45:31;;;;;;;10.30;3.70;;;22.40;16.40;;;;;;4961937;28;20456;-84
2022/06/21 07:48:03;;;;;;;5.67;2.90;;;22.30;18.70;;;;;;4962299;28;20520;-83
2022/06/21 07:50:35;;;;;;;11.03;3.13;;;22.10;15.40;;;;;;4961751;28;20516;-83
2022/06/21 07:53:08;;;;;;;6.37;2.47;;;22.60;17.20;;;;;;4962131;28;20470;-83
2022/06/21 07:55:41;;;;;;;6.70;3.17;;;22.80;16.30;;;;;;4961615;28;20459;-84
2022/06/21 07:58:12;;;;;;;6.10;2.87;;;22.80;14.20;;;;;;4961548;28;20485;-82
2022/06/21 08:09:13;;;;;;;8.80;3.23;;;23.60;11.20;;;;;;4965651;29;20967;-84
2022/06/21 08:11:44;;;;;;;6.33;2.80;;;24.00;10.10;;;;;;4966037;28;20802;-83
2022/06/21 08:14:12;;;;;;;5.33;2.53;;;23.60;8.70;;;;;;4967575;28;20451;-81
2022/06/21 08:16:47;;;;;;;5.10;2.53;;;23.60;12.20;;;;;;4972757;28;20461;-80
2022/06/21 08:19:22;;;;;;;6.10;2.10;;;23.80;4.80;;;;;;4968446;28;20455;-79
2022/06/21 08:21:56;;;;;;;7.10;2.63;;;23.80;1.30;;;;;;4968531;28;20478;-83
2022/06/21 08:24:28;;;;;;;10.03;3.00;;;23.90;1.80;;;;;;4969339;28;20463;-83
2022/06/21 08:27:07;;;;;;;9.10;2.80;;;24.40;1.30;;;;;;4970264;28;20461;-83
2022/06/21 08:29:37;;;;;;;7.17;2.97;;;25.00;1.30;;;;;;4972585;28;20467;-84
2022/06/21 08:32:13;;;;;;;9.63;2.90;;;25.60;1.00;;;;;;4972667;28;20463;-83
2022/06/21 08:34:45;;;;;;;5.80;2.67;;;25.80;1.00;;;;;;4973778;28;20515;-84
2022/06/21 08:37:18;;;;;;;6.57;2.80;;;25.10;1.00;;;;;;4969861;28;21191;-80
2022/06/21 08:39:50;;;;;;;5.60;1.93;;;24.20;1.00;;;;;;4965865;28;20467;-80
2022/06/21 08:43:02;;;;;;;4.87;2.20;;;24.10;1.00;;;;;;4969093;28;20478;-84
2022/06/21 08:46:11;;;;;;;6.90;2.30;;;23.90;2.60;;;;;;4956390;28;20456;-81
2022/06/21 08:49:06;;;;;;;8.03;2.60;;;23.80;1.00;;;;;;4968621;28;20487;-81
2022/06/21 08:51:57;;;;;;;6.57;2.70;;;23.90;1.70;;;;;;4970227;28;20455;-81
2022/06/21 08:54:33;;;;;;;6.63;2.60;;;23.90;1.00;;;;;;4969352;28;20461;-81
2022/06/21 08:57:06;;;;;;;10.17;2.87;;;24.20;1.00;;;;;;4969839;28;20454;-83
2022/06/21 08:59:42;;;;;;;6.27;2.90;;;24.80;1.00;;;;;;4970597;28;20459;-81
2022/06/21 09:02:21;;;;;;;6.20;3.10;;;24.90;1.00;;;;;;4969284;28;20494;-81
2022/06/21 09:04:59;;;;;;;5.30;2.70;;;24.40;1.00;;;;;;4970451;28;20466;-81
2022/06/21 09:07:43;;;;;;;6.00;2.33;;;23.50;1.00;;;;;;4968632;28;20482;-81
2022/06/21 09:10:37;;;;;;;5.37;2.40;;;23.40;1.00;;;;;;4967452;28;20470;-80
2022/06/21 09:13:18;;;;;;;6.60;2.70;;;24.00;1.00;;;;;;4972909;28;20500;-84
2022/06/21 09:15:54;;;;;;;8.60;3.20;;;24.90;4.00;;;;;;4972204;28;20455;-83
2022/06/21 09:18:40;;;;;;;9.20;2.77;;;25.50;1.00;;;;;;4970698;28;20471;-84
2022/06/21 09:21:15;;;;;;;6.57;3.27;;;26.00;1.00;;;;;;4970659;28;20458;-82
2022/06/21 09:23:56;;;;;;;6.50;2.90;;;25.50;1.00;;;;;;4970996;28;20459;-82
2022/06/21 09:26:34;;;;;;;5.80;2.60;;;25.10;1.00;;;;;;4972147;28;20846;-83
2022/06/21 09:29:11;;;;;;;7.20;3.30;;;24.40;1.00;;;;;;4971870;28;20479;-86
2022/06/21 09:32:00;;;;;;;8.80;3.27;;;24.80;1.00;;;;;;4969116;28;20451;-81
2022/06/21 09:34:34;;;;;;;6.77;2.57;;;25.30;1.00;;;;;;4968989;28;20460;-81
2022/06/21 09:37:06;;;;;;;8.20;3.10;;;25.10;1.00;;;;;;4970003;28;20465;-82
2022/06/21 09:39:39;;;;;;;5.80;2.80;;;24.80;1.00;;;;;;4967214;28;20456;-81
2022/06/21 09:42:18;;;;;;;6.57;2.90;;;24.10;1.00;;;;;;4972737;28;20483;-83
2022/06/21 09:44:51;;;;;;;6.60;3.20;;;24.00;1.00;;;;;;4973439;28;20451;-83
2022/06/21 09:47:27;;;;;;;8.57;2.30;;;24.10;1.00;;;;;;4969492;28;20498;-82
2022/06/21 09:50:01;;;;;;;8.37;2.83;;;24.00;1.00;;;;;;4968697;28;20467;-82
2022/06/21 09:52:38;;;;;;;6.70;2.87;;;24.20;1.00;;;;;;4970086;28;20451;-82
2022/06/21 09:55:16;;;;;;;6.30;2.73;;;24.40;1.00;;;;;;4970375;28;20474;-82
2022/06/21 09:57:51;;;;;;;6.90;2.43;;;24.40;1.00;;;;;;4969954;28;20471;-82
2022/06/21 10:00:25;;;;;;;14.63;3.03;;;25.00;1.00;;;;;;4969186;28;20450;-82
2022/06/21 10:03:06;;;;;;;5.70;2.50;;;25.50;1.00;;;;;;4969959;28;20486;-82
2022/06/21 10:05:40;;;;;;;6.50;3.00;;;25.90;1.00;;;;;;4969389;28;20523;-83
2022/06/21 10:08:30;;;;;;;6.00;2.77;;;25.90;1.00;;;;;;4969714;28;20479;-82
2022/06/21 10:11:11;;;;;;;6.23;2.30;;;26.20;1.00;;;;;;4972895;28;20448;-84
2022/06/21 10:13:58;;;;;;;8.43;2.50;;;25.80;1.00;;;;;;4970869;28;20459;-85
2022/06/21 10:16:52;;;;;;;5.60;2.37;;;25.40;1.00;;;;;;4973363;28;20479;-85
2022/06/21 10:19:31;;;;;;;5.50;2.83;;;25.00;1.00;;;;;;4971594;28;20483;-86
2022/06/21 10:22:16;;;;;;;7.23;3.10;;;25.30;1.00;;;;;;4971392;28;20862;-86
2022/06/21 10:25:00;;;;;;;6.60;2.60;;;24.70;1.00;;;;;;4972323;28;20964;-85
2022/06/21 10:27:55;;;;;;;6.30;2.77;;;24.40;1.00;;;;;;4971247;28;20475;-85
2022/06/21 10:30:47;;;;;;;5.23;2.73;;;24.40;1.00;;;;;;4971270;28;20437;-85
2022/06/21 10:33:33;;;;;;;7.47;3.57;;;24.40;1.00;;;;;;4970898;28;20452;-85
2022/06/21 10:36:18;;;;;;;7.10;2.83;;;24.40;1.00;;;;;;4971572;28;20451;-84
2022/06/21 10:39:22;;;;;;;5.77;2.60;;;24.50;1.00;;;;;;4970212;28;20486;-83
2022/06/21 10:45:11;;;;;;;7.67;2.97;;;24.30;1.00;;;;;;4973107;29;20466;-84
2022/06/21 10:47:57;;;;;;;10.23;3.33;;;24.80;1.00;;;;;;4972787;28;20542;-84
2022/06/21 10:50:34;;;;;;;6.27;3.23;;;24.60;1.00;;;;;;4970218;28;20455;-82
2022/06/21 10:53:27;;;;;;;5.20;2.73;;;24.80;1.00;;;;;;4991289;28;20450;-83
2022/06/21 10:58:56;;;;;;;5.90;3.00;;;25.20;1.00;;;;;;4990792;28;20531;-84
2022/06/21 11:01:30;;;;;;;5.60;2.63;;;24.20;1.00;;;;;;4991320;28;20810;-84
2022/06/21 11:04:27;;;;;;;8.33;3.20;;;23.90;1.00;;;;;;4989873;28;20863;-84
2022/06/21 11:07:03;;;;;;;10.23;2.60;;;24.20;1.00;;;;;;4992764;28;20745;-83
2022/06/21 11:09:38;;;;;;;8.30;2.73;;;24.00;1.00;;;;;;4991078;28;20447;-83
2022/06/21 11:15:24;;;;;;;5.43;2.87;;;24.00;1.00;;;;;;4952388;29;20448;-83
2022/06/21 11:18:02;;;;;;;5.13;2.50;;;25.60;1.00;;;;;;4951699;29;20563;-83
2022/06/21 11:20:34;;;;;;;5.60;2.40;;;26.20;1.00;;;;;;4974529;28;20466;-83
2022/06/21 11:23:14;;;;;;;7.67;2.87;;;27.30;1.00;;;;;;4991906;28;20482;-83
2022/06/21 11:25:47;;;;;;;7.00;3.00;;;26.60;1.00;;;;;;4992862;28;20451;-83
2022/06/21 11:28:31;;;;;;;7.37;2.50;;;26.00;1.00;;;;;;4991858;28;20474;-82
2022/06/21 11:31:10;;;;;;;6.97;3.10;;;26.00;1.00;;;;;;4996030;28;20465;-83
2022/06/21 11:33:46;;;;;;;5.80;2.40;;;26.10;1.00;;;;;;4996467;28;20447;-83
2022/06/21 11:36:21;;;;;;;7.77;2.70;;;27.70;1.00;;;;;;4996448;28;20454;-83
2022/06/21 11:39:03;;;;;;;6.10;2.43;;;28.40;1.00;;;;;;4992703;28;20470;-81
2022/06/21 11:42:08;;;;;;;5.90;2.40;;;27.90;1.00;;;;;;4989793;28;20513;-84
2022/06/21 11:45:14;;;;;;;6.17;3.13;;;27.70;1.00;;;;;;4983350;28;20451;-85
2022/06/21 11:47:54;;;;;;;6.63;3.00;;;28.40;1.00;;;;;;4982867;28;20475;-85
2022/06/21 11:50:23;;;;;;;6.47;2.50;;;28.20;1.00;;;;;;4982966;28;20466;-83
2022/06/21 11:53:14;;;;;;;7.63;2.43;;;28.20;1.00;;;;;;4982479;28;20455;-83
2022/06/21 11:55:44;;;;;;;4.80;2.50;;;28.60;1.00;;;;;;4981304;28;20980;-83
2022/06/21 11:58:24;;;;;;;7.33;2.60;;;28.90;1.00;;;;;;4979427;28;20467;-83
2022/06/21 12:00:59;;;;;;;6.03;2.53;;;29.10;1.00;;;;;;4981760;28;20450;-83
2022/06/21 12:03:38;;;;;;;6.60;2.67;;;28.70;1.00;;;;;;4981200;28;20489;-83
2022/06/21 12:06:11;;;;;;;5.93;2.60;;;28.60;1.00;;;;;;4981399;28;20459;-83
2022/06/21 12:08:43;;;;;;;7.33;2.90;;;28.10;1.00;;;;;;4980300;28;20482;-83
2022/06/21 12:11:15;;;;;;;5.90;3.20;;;28.10;1.00;;;;;;4981842;28;20461;-83
2022/06/21 12:13:53;;;;;;;5.53;2.87;;;28.00;1.00;;;;;;4981716;28;20477;-83
2022/06/21 12:16:35;;;;;;;5.70;2.73;;;28.00;1.00;;;;;;4981200;28;20459;-83
2022/06/21 12:19:06;;;;;;;7.87;2.93;;;27.80;1.00;;;;;;5006568;23;20494;-81
2022/06/21 12:21:38;;;;;;;5.53;2.70;;;28.40;1.00;;;;;;4987477;28;20447;-81
2022/06/21 12:24:08;;;;;;;5.00;2.30;;;27.80;1.00;;;;;;4987348;28;20486;-81
2022/06/21 12:26:36;;;;;;;7.27;3.10;;;27.40;1.00;;;;;;4987689;28;20827;-81
2022/06/21 12:29:07;;;;;;;5.60;2.70;;;27.40;1.00;;;;;;5001683;28;20474;-81
2022/06/21 12:31:41;;;;;;;4.77;2.23;;;28.10;1.00;;;;;;5007652;28;20458;-81
2022/06/21 12:34:11;;;;;;;4.80;2.20;;;30.10;1.00;;;;;;5008388;28;20474;-83
2022/06/21 12:36:44;;;;;;;5.53;2.40;;;31.10;1.00;;;;;;5008494;28;20809;-84
2022/06/21 12:39:17;;;;;;;6.07;2.67;;;32.40;1.00;;;;;;5004734;28;20473;-85
2022/06/21 12:41:56;;;;;;;5.23;2.10;;;32.20;1.00;;;;;;5007310;28;20468;-82
2022/06/21 12:44:34;;;;;;;5.03;2.10;;;32.80;1.00;;;;;;5006605;28;20450;-82
2022/06/21 12:47:17;;;;;;;6.33;2.30;;;32.10;1.00;;;;;;5006117;28;20423;-82
2022/06/21 12:50:26;;;;;;;4.50;1.70;;;31.70;1.00;;;;;;5004772;28;20432;-83
2022/06/21 12:53:02;;;;;;;5.43;2.07;;;32.20;1.00;;;;;;5005030;28;20421;-82
2022/06/21 12:55:37;;;;;;;4.97;2.00;;;31.20;1.00;;;;;;5005016;28;20445;-82
2022/06/21 12:58:13;;;;;;;6.33;2.73;;;31.10;1.00;;;;;;5005423;28;20447;-82
2022/06/21 13:00:50;;;;;;;7.30;2.50;;;30.70;1.00;;;;;;5006180;28;20428;-84
2022/06/21 13:03:38;;;;;;;6.68;3.42;;;31.10;1.00;;;;;;4993635;28;20459;-86
2022/06/21 13:06:31;;;;;;;5.40;2.40;;;32.20;1.00;;;;;;4991805;28;20199;-86
2022/06/21 13:09:16;;;;;;;6.17;2.87;;;32.00;1.00;;;;;;4983967;28;20460;-87
2022/06/21 13:11:57;;;;;;;6.53;2.50;;;31.00;1.00;;;;;;4974503;28;20437;-87
2022/06/21 13:14:51;;;;;;;7.00;2.70;;;30.60;1.00;;;;;;4990120;28;20457;-86
2022/06/21 13:17:32;;;;;;;5.73;2.50;;;29.40;1.00;;;;;;4978139;28;20443;-86
2022/06/21 13:20:07;;;;;;;6.07;2.00;;;28.40;1.00;;;;;;4990404;28;20458;-86
2022/06/21 13:22:53;;;;;;;5.30;2.07;;;27.90;1.00;;;;;;4980745;28;20458;-86
2022/06/21 13:25:36;;;;;;;5.60;2.00;;;27.20;1.00;;;;;;4990043;28;20816;-86
2022/06/21 13:28:19;;;;;;;5.27;1.90;;;26.90;1.00;;;;;;4992262;28;20452;-86
2022/06/21 13:30:54;;;;;;;5.90;1.90;;;27.40;1.00;;;;;;4978550;28;20421;-86
2022/06/21 13:33:27;;;;;;;8.83;1.87;;;27.20;1.00;;;;;;4990438;28;20456;-86
2022/06/21 13:36:02;;;;;;;4.30;1.80;;;27.30;1.00;;;;;;4996075;28;20453;-86
2022/06/21 13:38:40;;;;;;;6.00;1.80;;;28.00;1.00;;;;;;5000669;28;20520;-85
2022/06/21 13:42:37;;;;;;;5.30;2.10;;;28.10;1.00;;;;;;4980809;28;20880;-85
2022/06/21 13:44:08;;;;;;;6.10;2.17;;;28.20;1.00;;;;;;5004825;28;20470;-86
2022/06/21 13:46:40;;;;;;;4.93;1.87;;;28.80;1.00;;;;;;5007702;28;20458;-86
2022/06/21 13:49:18;;;;;;;6.40;1.60;;;29.00;1.00;;;;;;4997818;28;20480;-84
2022/06/21 13:51:51;;;;;;;5.07;1.53;;;29.80;1.00;;;;;;5008996;28;20466;-87
2022/06/21 13:54:23;;;;;;;7.13;2.00;;;29.60;1.00;;;;;;4990694;28;20447;-85
2022/06/21 13:56:57;;;;;;;5.27;2.00;;;29.00;1.00;;;;;;4989935;28;20467;-87
2022/06/21 13:59:28;;;;;;;5.03;1.83;;;28.10;1.00;;;;;;5000988;28;20473;-87
2022/06/21 14:02:03;;;;;;;6.87;2.33;;;28.40;1.00;;;;;;4993870;28;20464;-87
2022/06/21 14:04:46;;;;;;;6.20;2.87;;;28.00;1.00;;;;;;4994946;28;20477;-85
2022/06/21 14:07:21;;;;;;;7.07;2.43;;;27.70;1.00;;;;;;5000569;28;20454;-83